sensor_id;sensor_type;location;lat;lon;timestamp;P1;durP1;ratioP1;P2;durP2;ratioP2
66633;SDS011;53546;52.184;5.596;2022-11-20T00:00:09;18.23;;;8.70;;
66633;SDS011;53546;52.184;5.596;2022-11-20T00:02:35;12.68;;;8.02;;
66633;SDS011;53546;52.184;5.596;2022-11-20T00:05:00;16.35;;;8.45;;
66633;SDS011;53546;52.184;5.596;2022-11-20T00:07:25;13.27;;;7.82;;
66633;SDS011;53546;52.184;5.596;2022-11-20T00:09:51;13.38;;;7.72;;
66633;SDS011;53546;52.184;5.596;2022-11-20T00:12:16;12.68;;;8.25;;
66633;SDS011;53546;52.184;5.596;2022-11-20T00:14:42;14.52;;;7.53;;
66633;SDS011;53546;52.184;5.596;2022-11-20T00:17:07;11.98;;;7.45;;
66633;SDS011;53546;52.184;5.596;2022-11-20T00:19:32;11.70;;;7.22;;
66633;SDS011;53546;52.184;5.596;2022-11-20T00:21:58;10.60;;;7.30;;
66633;SDS011;53546;52.184;5.596;2022-11-20T00:24:23;11.75;;;7.00;;
66633;SDS011;53546;52.184;5.596;2022-11-20T00:26:48;13.80;;;7.00;;
66633;SDS011;53546;52.184;5.596;2022-11-20T00:29:14;15.57;;;7.53;;
66633;SDS011;53546;52.184;5.596;2022-11-20T00:31:39;11.27;;;6.20;;
66633;SDS011;53546;52.184;5.596;2022-11-20T00:34:05;15.40;;;7.00;;
66633;SDS011;53546;52.184;5.596;2022-11-20T00:36:31;18.02;;;6.82;;
66633;SDS011;53546;52.184;5.596;2022-11-20T00:38:58;13.93;;;6.80;;
66633;SDS011;53546;52.184;5.596;2022-11-20T00:41:24;10.02;;;6.45;;
66633;SDS011;53546;52.184;5.596;2022-11-20T00:43:52;10.38;;;6.70;;
66633;SDS011;53546;52.184;5.596;2022-11-20T00:46:18;12.48;;;6.88;;
66633;SDS011;53546;52.184;5.596;2022-11-20T00:48:45;11.13;;;6.90;;
66633;SDS011;53546;52.184;5.596;2022-11-20T00:51:11;12.20;;;6.70;;
66633;SDS011;53546;52.184;5.596;2022-11-20T00:53:38;9.65;;;6.43;;
66633;SDS011;53546;52.184;5.596;2022-11-20T00:56:05;10.13;;;6.50;;
66633;SDS011;53546;52.184;5.596;2022-11-20T00:58:33;11.73;;;6.03;;
66633;SDS011;53546;52.184;5.596;2022-11-20T01:01:03;9.32;;;6.40;;
66633;SDS011;53546;52.184;5.596;2022-11-20T01:03:31;10.10;;;6.35;;
66633;SDS011;53546;52.184;5.596;2022-11-20T01:06:04;9.30;;;5.95;;
66633;SDS011;53546;52.184;5.596;2022-11-20T01:08:32;8.02;;;6.00;;
66633;SDS011;53546;52.184;5.596;2022-11-20T01:10:59;11.48;;;6.20;;
66633;SDS011;53546;52.184;5.596;2022-11-20T01:13:30;7.22;;;5.25;;
66633;SDS011;53546;52.184;5.596;2022-11-20T01:18:38;8.07;;;5.90;;
66633;SDS011;53546;52.184;5.596;2022-11-20T01:21:05;10.25;;;5.72;;
66633;SDS011;53546;52.184;5.596;2022-11-20T01:23:36;11.30;;;6.38;;
66633;SDS011;53546;52.184;5.596;2022-11-20T01:26:04;7.93;;;6.05;;
66633;SDS011;53546;52.184;5.596;2022-11-20T01:28:33;11.43;;;5.75;;
66633;SDS011;53546;52.184;5.596;2022-11-20T01:30:59;7.78;;;5.60;;
66633;SDS011;53546;52.184;5.596;2022-11-20T01:33:25;7.25;;;5.40;;
66633;SDS011;53546;52.184;5.596;2022-11-20T01:35:51;7.90;;;5.55;;
66633;SDS011;53546;52.184;5.596;2022-11-20T01:38:17;10.73;;;5.03;;
66633;SDS011;53546;52.184;5.596;2022-11-20T01:40:42;10.02;;;5.78;;
66633;SDS011;53546;52.184;5.596;2022-11-20T01:43:12;8.43;;;5.43;;
66633;SDS011;53546;52.184;5.596;2022-11-20T01:45:56;7.43;;;5.05;;
66633;SDS011;53546;52.184;5.596;2022-11-20T01:48:42;9.67;;;5.23;;
66633;SDS011;53546;52.184;5.596;2022-11-20T01:51:12;12.52;;;4.85;;
66633;SDS011;53546;52.184;5.596;2022-11-20T01:53:44;7.20;;;5.40;;
66633;SDS011;53546;52.184;5.596;2022-11-20T01:56:10;7.40;;;4.88;;
66633;SDS011;53546;52.184;5.596;2022-11-20T01:58:38;5.72;;;5.10;;
66633;SDS011;53546;52.184;5.596;2022-11-20T02:01:05;7.10;;;5.30;;
66633;SDS011;53546;52.184;5.596;2022-11-20T02:03:31;6.47;;;5.25;;
66633;SDS011;53546;52.184;5.596;2022-11-20T02:08:57;6.07;;;4.78;;
66633;SDS011;53546;52.184;5.596;2022-11-20T02:11:23;7.68;;;4.82;;
66633;SDS011;53546;52.184;5.596;2022-11-20T02:13:48;6.22;;;4.70;;
66633;SDS011;53546;52.184;5.596;2022-11-20T02:16:25;7.43;;;4.88;;
66633;SDS011;53546;52.184;5.596;2022-11-20T02:18:52;6.43;;;4.45;;
66633;SDS011;53546;52.184;5.596;2022-11-20T02:24:09;6.55;;;4.32;;
66633;SDS011;53546;52.184;5.596;2022-11-20T02:29:23;6.82;;;5.15;;
66633;SDS011;53546;52.184;5.596;2022-11-20T02:31:51;5.35;;;4.45;;
66633;SDS011;53546;52.184;5.596;2022-11-20T02:34:16;8.10;;;4.53;;
66633;SDS011;53546;52.184;5.596;2022-11-20T02:36:41;6.90;;;4.88;;
66633;SDS011;53546;52.184;5.596;2022-11-20T02:39:07;5.30;;;4.40;;
66633;SDS011;53546;52.184;5.596;2022-11-20T02:41:35;6.13;;;4.72;;
66633;SDS011;53546;52.184;5.596;2022-11-20T02:44:02;7.38;;;5.10;;
66633;SDS011;53546;52.184;5.596;2022-11-20T02:46:29;9.07;;;5.20;;
66633;SDS011;53546;52.184;5.596;2022-11-20T02:48:55;6.85;;;4.95;;
66633;SDS011;53546;52.184;5.596;2022-11-20T02:51:20;5.93;;;4.70;;
66633;SDS011;53546;52.184;5.596;2022-11-20T02:53:46;6.85;;;4.80;;
66633;SDS011;53546;52.184;5.596;2022-11-20T02:56:11;7.57;;;5.55;;
66633;SDS011;53546;52.184;5.596;2022-11-20T02:58:37;8.27;;;4.90;;
66633;SDS011;53546;52.184;5.596;2022-11-20T03:01:02;6.63;;;4.82;;
66633;SDS011;53546;52.184;5.596;2022-11-20T03:03:27;6.40;;;5.07;;
66633;SDS011;53546;52.184;5.596;2022-11-20T03:05:53;7.78;;;4.97;;
66633;SDS011;53546;52.184;5.596;2022-11-20T03:08:18;7.85;;;5.82;;
66633;SDS011;53546;52.184;5.596;2022-11-20T03:10:43;8.50;;;5.88;;
66633;SDS011;53546;52.184;5.596;2022-11-20T03:13:09;9.57;;;6.45;;
66633;SDS011;53546;52.184;5.596;2022-11-20T03:15:35;9.98;;;6.75;;
66633;SDS011;53546;52.184;5.596;2022-11-20T03:18:01;9.80;;;6.82;;
66633;SDS011;53546;52.184;5.596;2022-11-20T03:20:27;8.82;;;6.60;;
66633;SDS011;53546;52.184;5.596;2022-11-20T03:22:53;10.15;;;7.00;;
66633;SDS011;53546;52.184;5.596;2022-11-20T03:25:19;11.75;;;7.57;;
66633;SDS011;53546;52.184;5.596;2022-11-20T03:27:44;10.88;;;7.13;;
66633;SDS011;53546;52.184;5.596;2022-11-20T03:30:10;10.32;;;6.57;;
66633;SDS011;53546;52.184;5.596;2022-11-20T03:32:35;11.95;;;7.03;;
66633;SDS011;53546;52.184;5.596;2022-11-20T03:35:01;11.30;;;7.40;;
66633;SDS011;53546;52.184;5.596;2022-11-20T03:37:26;9.75;;;6.35;;
66633;SDS011;53546;52.184;5.596;2022-11-20T03:39:52;11.60;;;7.40;;
66633;SDS011;53546;52.184;5.596;2022-11-20T03:42:17;10.45;;;7.03;;
66633;SDS011;53546;52.184;5.596;2022-11-20T03:45:01;11.23;;;7.53;;
66633;SDS011;53546;52.184;5.596;2022-11-20T03:47:26;11.30;;;7.25;;
66633;SDS011;53546;52.184;5.596;2022-11-20T03:49:52;9.10;;;6.47;;
66633;SDS011;53546;52.184;5.596;2022-11-20T03:52:17;10.38;;;6.70;;
66633;SDS011;53546;52.184;5.596;2022-11-20T03:54:42;10.35;;;7.10;;
66633;SDS011;53546;52.184;5.596;2022-11-20T03:57:08;10.10;;;7.25;;
66633;SDS011;53546;52.184;5.596;2022-11-20T03:59:33;13.20;;;7.32;;
66633;SDS011;53546;52.184;5.596;2022-11-20T04:01:58;10.07;;;6.88;;
66633;SDS011;53546;52.184;5.596;2022-11-20T04:04:24;11.23;;;7.43;;
66633;SDS011;53546;52.184;5.596;2022-11-20T04:06:49;10.18;;;7.03;;
66633;SDS011;53546;52.184;5.596;2022-11-20T04:09:14;9.15;;;6.38;;
66633;SDS011;53546;52.184;5.596;2022-11-20T04:11:40;10.57;;;6.88;;
66633;SDS011;53546;52.184;5.596;2022-11-20T04:14:06;11.68;;;7.47;;
66633;SDS011;53546;52.184;5.596;2022-11-20T04:16:37;10.00;;;6.50;;
66633;SDS011;53546;52.184;5.596;2022-11-20T04:19:04;10.07;;;6.72;;
66633;SDS011;53546;52.184;5.596;2022-11-20T04:21:31;9.73;;;6.55;;
66633;SDS011;53546;52.184;5.596;2022-11-20T04:23:56;8.80;;;6.40;;
66633;SDS011;53546;52.184;5.596;2022-11-20T04:26:23;9.80;;;6.88;;
66633;SDS011;53546;52.184;5.596;2022-11-20T04:28:49;9.35;;;6.07;;
66633;SDS011;53546;52.184;5.596;2022-11-20T04:31:16;10.00;;;6.70;;
66633;SDS011;53546;52.184;5.596;2022-11-20T04:33:43;8.85;;;6.35;;
66633;SDS011;53546;52.184;5.596;2022-11-20T04:36:13;9.65;;;6.53;;
66633;SDS011;53546;52.184;5.596;2022-11-20T04:38:43;8.82;;;6.70;;
66633;SDS011;53546;52.184;5.596;2022-11-20T04:41:11;10.32;;;6.50;;
66633;SDS011;53546;52.184;5.596;2022-11-20T04:43:40;10.40;;;6.10;;
66633;SDS011;53546;52.184;5.596;2022-11-20T04:46:05;9.07;;;6.40;;
66633;SDS011;53546;52.184;5.596;2022-11-20T04:48:30;10.60;;;6.60;;
66633;SDS011;53546;52.184;5.596;2022-11-20T04:50:56;7.82;;;5.93;;
66633;SDS011;53546;52.184;5.596;2022-11-20T04:53:21;8.50;;;5.57;;
66633;SDS011;53546;52.184;5.596;2022-11-20T04:55:47;8.73;;;6.28;;
66633;SDS011;53546;52.184;5.596;2022-11-20T04:58:13;7.68;;;5.50;;
66633;SDS011;53546;52.184;5.596;2022-11-20T05:00:39;7.80;;;5.70;;
66633;SDS011;53546;52.184;5.596;2022-11-20T05:03:05;8.05;;;5.57;;
66633;SDS011;53546;52.184;5.596;2022-11-20T05:05:30;6.55;;;5.03;;
66633;SDS011;53546;52.184;5.596;2022-11-20T05:07:56;10.15;;;5.57;;
66633;SDS011;53546;52.184;5.596;2022-11-20T05:10:23;7.32;;;5.55;;
66633;SDS011;53546;52.184;5.596;2022-11-20T05:12:48;10.82;;;5.97;;
66633;SDS011;53546;52.184;5.596;2022-11-20T05:15:14;7.65;;;5.50;;
66633;SDS011;53546;52.184;5.596;2022-11-20T05:17:39;8.48;;;5.68;;
66633;SDS011;53546;52.184;5.596;2022-11-20T05:20:05;7.72;;;5.57;;
66633;SDS011;53546;52.184;5.596;2022-11-20T05:22:31;7.97;;;5.50;;
66633;SDS011;53546;52.184;5.596;2022-11-20T05:24:56;7.80;;;5.72;;
66633;SDS011;53546;52.184;5.596;2022-11-20T05:27:21;7.65;;;5.82;;
66633;SDS011;53546;52.184;5.596;2022-11-20T05:29:47;6.15;;;5.05;;
66633;SDS011;53546;52.184;5.596;2022-11-20T05:32:12;7.15;;;5.13;;
66633;SDS011;53546;52.184;5.596;2022-11-20T05:34:37;7.50;;;5.18;;
66633;SDS011;53546;52.184;5.596;2022-11-20T05:37:03;7.68;;;5.30;;
66633;SDS011;53546;52.184;5.596;2022-11-20T05:39:28;6.82;;;5.32;;
66633;SDS011;53546;52.184;5.596;2022-11-20T05:41:53;6.93;;;5.20;;
66633;SDS011;53546;52.184;5.596;2022-11-20T05:44:37;7.82;;;5.50;;
66633;SDS011;53546;52.184;5.596;2022-11-20T05:47:03;7.57;;;5.18;;
66633;SDS011;53546;52.184;5.596;2022-11-20T05:49:28;6.97;;;5.18;;
66633;SDS011;53546;52.184;5.596;2022-11-20T05:51:53;9.60;;;5.25;;
66633;SDS011;53546;52.184;5.596;2022-11-20T05:54:18;6.65;;;5.05;;
66633;SDS011;53546;52.184;5.596;2022-11-20T05:56:44;5.68;;;4.70;;
66633;SDS011;53546;52.184;5.596;2022-11-20T05:59:09;6.35;;;4.75;;
66633;SDS011;53546;52.184;5.596;2022-11-20T06:01:34;5.85;;;4.80;;
66633;SDS011;53546;52.184;5.596;2022-11-20T06:04:01;5.88;;;4.68;;
66633;SDS011;53546;52.184;5.596;2022-11-20T06:06:26;7.40;;;5.20;;
66633;SDS011;53546;52.184;5.596;2022-11-20T06:08:51;6.68;;;5.25;;
66633;SDS011;53546;52.184;5.596;2022-11-20T06:11:17;6.63;;;4.88;;
66633;SDS011;53546;52.184;5.596;2022-11-20T06:13:42;7.68;;;4.47;;
66633;SDS011;53546;52.184;5.596;2022-11-20T06:16:09;6.53;;;4.85;;
66633;SDS011;53546;52.184;5.596;2022-11-20T06:18:35;8.65;;;5.22;;
66633;SDS011;53546;52.184;5.596;2022-11-20T06:21:07;9.50;;;5.13;;
66633;SDS011;53546;52.184;5.596;2022-11-20T06:23:43;6.22;;;5.05;;
66633;SDS011;53546;52.184;5.596;2022-11-20T06:26:12;5.50;;;4.78;;
66633;SDS011;53546;52.184;5.596;2022-11-20T06:28:39;6.18;;;4.95;;
66633;SDS011;53546;52.184;5.596;2022-11-20T06:31:05;8.45;;;5.00;;
66633;SDS011;53546;52.184;5.596;2022-11-20T06:33:31;6.22;;;4.95;;
66633;SDS011;53546;52.184;5.596;2022-11-20T06:35:57;7.22;;;5.07;;
66633;SDS011;53546;52.184;5.596;2022-11-20T06:38:24;10.18;;;4.72;;
66633;SDS011;53546;52.184;5.596;2022-11-20T06:40:50;6.95;;;4.88;;
66633;SDS011;53546;52.184;5.596;2022-11-20T06:43:15;7.05;;;5.22;;
66633;SDS011;53546;52.184;5.596;2022-11-20T06:45:40;7.00;;;4.70;;
66633;SDS011;53546;52.184;5.596;2022-11-20T06:48:06;7.28;;;5.05;;
66633;SDS011;53546;52.184;5.596;2022-11-20T06:50:31;5.75;;;4.75;;
66633;SDS011;53546;52.184;5.596;2022-11-20T06:52:59;7.05;;;4.90;;
66633;SDS011;53546;52.184;5.596;2022-11-20T06:55:25;6.07;;;4.80;;
66633;SDS011;53546;52.184;5.596;2022-11-20T06:57:51;6.15;;;4.70;;
66633;SDS011;53546;52.184;5.596;2022-11-20T07:00:16;6.60;;;4.88;;
66633;SDS011;53546;52.184;5.596;2022-11-20T07:02:41;6.40;;;4.82;;
66633;SDS011;53546;52.184;5.596;2022-11-20T07:05:07;9.20;;;4.85;;
66633;SDS011;53546;52.184;5.596;2022-11-20T07:07:32;6.85;;;4.60;;
66633;SDS011;53546;52.184;5.596;2022-11-20T07:09:58;6.15;;;4.65;;
66633;SDS011;53546;52.184;5.596;2022-11-20T07:12:23;7.30;;;5.15;;
66633;SDS011;53546;52.184;5.596;2022-11-20T07:14:48;8.05;;;4.57;;
66633;SDS011;53546;52.184;5.596;2022-11-20T07:17:14;8.75;;;5.07;;
66633;SDS011;53546;52.184;5.596;2022-11-20T07:19:39;7.75;;;4.60;;
66633;SDS011;53546;52.184;5.596;2022-11-20T07:22:04;8.23;;;4.90;;
66633;SDS011;53546;52.184;5.596;2022-11-20T07:24:30;6.53;;;4.82;;
66633;SDS011;53546;52.184;5.596;2022-11-20T07:26:55;7.78;;;4.68;;
66633;SDS011;53546;52.184;5.596;2022-11-20T07:29:20;6.45;;;4.65;;
66633;SDS011;53546;52.184;5.596;2022-11-20T07:31:46;6.00;;;4.20;;
66633;SDS011;53546;52.184;5.596;2022-11-20T07:34:11;6.07;;;4.60;;
66633;SDS011;53546;52.184;5.596;2022-11-20T07:36:37;9.45;;;4.40;;
66633;SDS011;53546;52.184;5.596;2022-11-20T07:39:02;6.47;;;4.43;;
66633;SDS011;53546;52.184;5.596;2022-11-20T07:41:27;12.15;;;5.03;;
66633;SDS011;53546;52.184;5.596;2022-11-20T07:43:53;8.68;;;5.00;;
66633;SDS011;53546;52.184;5.596;2022-11-20T07:46:19;9.65;;;4.95;;
66633;SDS011;53546;52.184;5.596;2022-11-20T07:48:44;6.57;;;4.82;;
66633;SDS011;53546;52.184;5.596;2022-11-20T07:51:10;8.63;;;4.78;;
66633;SDS011;53546;52.184;5.596;2022-11-20T07:53:35;8.68;;;4.70;;
66633;SDS011;53546;52.184;5.596;2022-11-20T07:56:01;9.23;;;4.53;;
66633;SDS011;53546;52.184;5.596;2022-11-20T07:58:28;9.35;;;4.78;;
66633;SDS011;53546;52.184;5.596;2022-11-20T08:00:54;8.63;;;5.22;;
66633;SDS011;53546;52.184;5.596;2022-11-20T08:03:19;8.68;;;5.22;;
66633;SDS011;53546;52.184;5.596;2022-11-20T08:05:45;13.45;;;4.97;;
66633;SDS011;53546;52.184;5.596;2022-11-20T08:08:10;14.15;;;6.15;;
66633;SDS011;53546;52.184;5.596;2022-11-20T08:10:35;11.80;;;5.95;;
66633;SDS011;53546;52.184;5.596;2022-11-20T08:13:01;9.35;;;5.40;;
66633;SDS011;53546;52.184;5.596;2022-11-20T08:15:47;12.65;;;5.53;;
66633;SDS011;53546;52.184;5.596;2022-11-20T08:18:15;10.20;;;5.22;;
66633;SDS011;53546;52.184;5.596;2022-11-20T08:20:40;8.15;;;5.00;;
66633;SDS011;53546;52.184;5.596;2022-11-20T08:23:07;10.75;;;5.40;;
66633;SDS011;53546;52.184;5.596;2022-11-20T08:25:33;9.27;;;5.22;;
66633;SDS011;53546;52.184;5.596;2022-11-20T08:28:00;7.35;;;5.00;;
66633;SDS011;53546;52.184;5.596;2022-11-20T08:30:27;6.55;;;4.90;;
66633;SDS011;53546;52.184;5.596;2022-11-20T08:32:52;14.98;;;6.05;;
66633;SDS011;53546;52.184;5.596;2022-11-20T08:35:18;12.52;;;5.30;;
66633;SDS011;53546;52.184;5.596;2022-11-20T08:37:47;13.82;;;5.95;;
66633;SDS011;53546;52.184;5.596;2022-11-20T08:40:13;11.90;;;5.93;;
66633;SDS011;53546;52.184;5.596;2022-11-20T08:42:48;11.65;;;5.97;;
66633;SDS011;53546;52.184;5.596;2022-11-20T08:45:14;13.73;;;6.95;;
66633;SDS011;53546;52.184;5.596;2022-11-20T08:47:40;15.40;;;6.88;;
66633;SDS011;53546;52.184;5.596;2022-11-20T08:50:06;13.65;;;7.07;;
66633;SDS011;53546;52.184;5.596;2022-11-20T08:52:32;19.48;;;6.68;;
66633;SDS011;53546;52.184;5.596;2022-11-20T08:54:58;10.85;;;6.30;;
66633;SDS011;53546;52.184;5.596;2022-11-20T08:57:23;13.93;;;7.30;;
66633;SDS011;53546;52.184;5.596;2022-11-20T08:59:48;14.75;;;7.82;;
66633;SDS011;53546;52.184;5.596;2022-11-20T09:02:14;13.85;;;6.22;;
66633;SDS011;53546;52.184;5.596;2022-11-20T09:04:40;12.20;;;6.95;;
66633;SDS011;53546;52.184;5.596;2022-11-20T09:07:05;12.48;;;6.18;;
66633;SDS011;53546;52.184;5.596;2022-11-20T09:09:31;21.08;;;7.50;;
66633;SDS011;53546;52.184;5.596;2022-11-20T09:11:57;14.52;;;6.82;;
66633;SDS011;53546;52.184;5.596;2022-11-20T09:14:22;21.55;;;8.10;;
66633;SDS011;53546;52.184;5.596;2022-11-20T09:16:53;17.67;;;7.18;;
66633;SDS011;53546;52.184;5.596;2022-11-20T09:19:19;20.83;;;8.07;;
66633;SDS011;53546;52.184;5.596;2022-11-20T09:21:45;22.23;;;7.13;;
66633;SDS011;53546;52.184;5.596;2022-11-20T09:24:10;22.73;;;7.20;;
66633;SDS011;53546;52.184;5.596;2022-11-20T09:26:35;14.55;;;6.97;;
66633;SDS011;53546;52.184;5.596;2022-11-20T09:29:01;12.68;;;6.93;;
66633;SDS011;53546;52.184;5.596;2022-11-20T09:31:26;13.43;;;6.85;;
66633;SDS011;53546;52.184;5.596;2022-11-20T09:33:52;14.43;;;6.43;;
66633;SDS011;53546;52.184;5.596;2022-11-20T09:36:18;12.73;;;6.60;;
66633;SDS011;53546;52.184;5.596;2022-11-20T09:38:46;19.70;;;7.20;;
66633;SDS011;53546;52.184;5.596;2022-11-20T09:41:36;10.88;;;6.65;;
66633;SDS011;53546;52.184;5.596;2022-11-20T09:44:07;10.70;;;6.18;;
66633;SDS011;53546;52.184;5.596;2022-11-20T09:47:16;16.38;;;6.55;;
66633;SDS011;53546;52.184;5.596;2022-11-20T09:49:57;14.17;;;6.57;;
66633;SDS011;53546;52.184;5.596;2022-11-20T09:55:02;10.50;;;6.45;;
66633;SDS011;53546;52.184;5.596;2022-11-20T09:57:34;14.65;;;6.50;;
66633;SDS011;53546;52.184;5.596;2022-11-20T10:00:02;11.52;;;7.57;;
66633;SDS011;53546;52.184;5.596;2022-11-20T10:05:23;13.82;;;7.05;;
66633;SDS011;53546;52.184;5.596;2022-11-20T10:07:53;9.13;;;6.68;;
66633;SDS011;53546;52.184;5.596;2022-11-20T10:10:46;23.65;;;8.60;;
66633;SDS011;53546;52.184;5.596;2022-11-20T10:21:17;21.25;;;9.52;;
66633;SDS011;53546;52.184;5.596;2022-11-20T10:29:38;15.13;;;9.02;;
66633;SDS011;53546;52.184;5.596;2022-11-20T10:32:17;14.93;;;8.85;;
66633;SDS011;53546;52.184;5.596;2022-11-20T10:34:46;16.05;;;8.38;;
66633;SDS011;53546;52.184;5.596;2022-11-20T10:37:38;12.95;;;8.60;;
66633;SDS011;53546;52.184;5.596;2022-11-20T10:40:22;14.07;;;9.18;;
66633;SDS011;53546;52.184;5.596;2022-11-20T10:43:01;13.65;;;9.20;;
66633;SDS011;53546;52.184;5.596;2022-11-20T10:48:25;10.32;;;7.60;;
66633;SDS011;53546;52.184;5.596;2022-11-20T10:50:57;13.60;;;8.05;;
66633;SDS011;53546;52.184;5.596;2022-11-20T10:55:54;9.70;;;7.32;;
66633;SDS011;53546;52.184;5.596;2022-11-20T10:58:34;10.70;;;7.20;;
66633;SDS011;53546;52.184;5.596;2022-11-20T11:01:11;10.82;;;7.20;;
66633;SDS011;53546;52.184;5.596;2022-11-20T11:03:39;11.55;;;7.32;;
66633;SDS011;53546;52.184;5.596;2022-11-20T11:08:45;10.65;;;7.72;;
66633;SDS011;53546;52.184;5.596;2022-11-20T11:11:20;8.85;;;6.82;;
66633;SDS011;53546;52.184;5.596;2022-11-20T11:13:47;11.05;;;7.50;;
66633;SDS011;53546;52.184;5.596;2022-11-20T11:18:49;49.28;;;12.27;;
66633;SDS011;53546;52.184;5.596;2022-11-20T11:21:21;50.05;;;12.57;;
66633;SDS011;53546;52.184;5.596;2022-11-20T11:23:48;50.40;;;11.52;;
66633;SDS011;53546;52.184;5.596;2022-11-20T11:26:23;35.35;;;10.55;;
66633;SDS011;53546;52.184;5.596;2022-11-20T11:28:59;25.20;;;9.10;;
66633;SDS011;53546;52.184;5.596;2022-11-20T11:31:26;19.23;;;8.30;;
66633;SDS011;53546;52.184;5.596;2022-11-20T11:36:31;17.00;;;7.82;;
66633;SDS011;53546;52.184;5.596;2022-11-20T11:39:01;18.88;;;8.23;;
66633;SDS011;53546;52.184;5.596;2022-11-20T11:41:29;17.70;;;8.68;;
66633;SDS011;53546;52.184;5.596;2022-11-20T11:44:02;18.23;;;8.73;;
66633;SDS011;53546;52.184;5.596;2022-11-20T11:47:08;16.38;;;7.50;;
66633;SDS011;53546;52.184;5.596;2022-11-20T11:55:42;15.15;;;7.32;;
66633;SDS011;53546;52.184;5.596;2022-11-20T12:06:27;16.23;;;7.18;;
66633;SDS011;53546;52.184;5.596;2022-11-20T12:09:04;11.60;;;7.15;;
66633;SDS011;53546;52.184;5.596;2022-11-20T12:14:40;13.98;;;6.85;;
66633;SDS011;53546;52.184;5.596;2022-11-20T12:17:12;16.58;;;7.18;;
66633;SDS011;53546;52.184;5.596;2022-11-20T12:19:39;10.82;;;7.00;;
66633;SDS011;53546;52.184;5.596;2022-11-20T12:30:12;20.25;;;6.80;;
66633;SDS011;53546;52.184;5.596;2022-11-20T12:43:40;17.42;;;7.47;;
66633;SDS011;53546;52.184;5.596;2022-11-20T12:46:42;14.95;;;7.07;;
66633;SDS011;53546;52.184;5.596;2022-11-20T12:49:23;26.17;;;7.25;;
66633;SDS011;53546;52.184;5.596;2022-11-20T13:00:22;13.68;;;8.73;;
66633;SDS011;53546;52.184;5.596;2022-11-20T13:08:41;20.13;;;9.10;;
66633;SDS011;53546;52.184;5.596;2022-11-20T13:11:16;14.63;;;9.10;;
66633;SDS011;53546;52.184;5.596;2022-11-20T13:16:26;19.65;;;8.48;;
66633;SDS011;53546;52.184;5.596;2022-11-20T13:18:54;25.30;;;8.55;;
66633;SDS011;53546;52.184;5.596;2022-11-20T13:21:21;12.82;;;8.05;;
66633;SDS011;53546;52.184;5.596;2022-11-20T13:24:06;16.70;;;7.43;;
66633;SDS011;53546;52.184;5.596;2022-11-20T13:26:31;16.65;;;7.85;;
66633;SDS011;53546;52.184;5.596;2022-11-20T13:29:11;10.68;;;7.88;;
66633;SDS011;53546;52.184;5.596;2022-11-20T13:31:39;14.73;;;7.63;;
66633;SDS011;53546;52.184;5.596;2022-11-20T13:34:09;13.55;;;7.68;;
66633;SDS011;53546;52.184;5.596;2022-11-20T13:36:38;18.02;;;7.28;;
66633;SDS011;53546;52.184;5.596;2022-11-20T13:39:23;12.05;;;6.90;;
66633;SDS011;53546;52.184;5.596;2022-11-20T13:41:59;13.98;;;6.75;;
66633;SDS011;53546;52.184;5.596;2022-11-20T13:46:57;13.77;;;6.57;;
66633;SDS011;53546;52.184;5.596;2022-11-20T13:49:38;10.35;;;6.22;;
66633;SDS011;53546;52.184;5.596;2022-11-20T14:02:44;13.25;;;6.53;;
66633;SDS011;53546;52.184;5.596;2022-11-20T14:05:32;12.00;;;5.72;;
66633;SDS011;53546;52.184;5.596;2022-11-20T14:08:02;12.32;;;6.93;;
66633;SDS011;53546;52.184;5.596;2022-11-20T14:10:29;9.55;;;5.85;;
66633;SDS011;53546;52.184;5.596;2022-11-20T14:12:55;9.48;;;6.25;;
66633;SDS011;53546;52.184;5.596;2022-11-20T14:15:28;8.93;;;5.93;;
66633;SDS011;53546;52.184;5.596;2022-11-20T14:17:55;10.18;;;6.18;;
66633;SDS011;53546;52.184;5.596;2022-11-20T14:20:22;8.07;;;5.63;;
66633;SDS011;53546;52.184;5.596;2022-11-20T14:22:50;8.30;;;5.45;;
66633;SDS011;53546;52.184;5.596;2022-11-20T14:27:47;10.15;;;5.90;;
66633;SDS011;53546;52.184;5.596;2022-11-20T14:30:17;8.63;;;5.95;;
66633;SDS011;53546;52.184;5.596;2022-11-20T14:32:54;7.13;;;5.50;;
66633;SDS011;53546;52.184;5.596;2022-11-20T14:35:23;7.95;;;5.50;;
66633;SDS011;53546;52.184;5.596;2022-11-20T14:37:52;8.10;;;5.85;;
66633;SDS011;53546;52.184;5.596;2022-11-20T14:40:40;8.38;;;5.95;;
66633;SDS011;53546;52.184;5.596;2022-11-20T14:43:24;7.90;;;5.93;;
66633;SDS011;53546;52.184;5.596;2022-11-20T14:49:08;9.63;;;6.53;;
66633;SDS011;53546;52.184;5.596;2022-11-20T14:51:31;7.68;;;5.97;;
66633;SDS011;53546;52.184;5.596;2022-11-20T14:56:35;9.63;;;6.10;;
66633;SDS011;53546;52.184;5.596;2022-11-20T14:59:00;11.85;;;6.40;;
66633;SDS011;53546;52.184;5.596;2022-11-20T15:01:29;9.52;;;6.00;;
66633;SDS011;53546;52.184;5.596;2022-11-20T15:04:00;10.90;;;6.18;;
66633;SDS011;53546;52.184;5.596;2022-11-20T15:06:27;7.75;;;6.22;;
66633;SDS011;53546;52.184;5.596;2022-11-20T15:08:54;11.38;;;6.57;;
66633;SDS011;53546;52.184;5.596;2022-11-20T15:11:20;11.27;;;6.10;;
66633;SDS011;53546;52.184;5.596;2022-11-20T15:13:50;10.50;;;6.70;;
66633;SDS011;53546;52.184;5.596;2022-11-20T15:16:19;9.50;;;7.00;;
66633;SDS011;53546;52.184;5.596;2022-11-20T15:18:46;10.00;;;6.82;;
66633;SDS011;53546;52.184;5.596;2022-11-20T15:21:13;9.35;;;6.78;;
66633;SDS011;53546;52.184;5.596;2022-11-20T15:23:40;10.90;;;6.53;;
66633;SDS011;53546;52.184;5.596;2022-11-20T15:26:05;10.35;;;6.20;;
66633;SDS011;53546;52.184;5.596;2022-11-20T15:31:09;14.00;;;6.32;;
66633;SDS011;53546;52.184;5.596;2022-11-20T15:33:36;14.77;;;6.32;;
66633;SDS011;53546;52.184;5.596;2022-11-20T15:36:02;10.80;;;6.60;;
66633;SDS011;53546;52.184;5.596;2022-11-20T15:38:27;9.35;;;6.72;;
66633;SDS011;53546;52.184;5.596;2022-11-20T15:40:53;12.40;;;6.15;;
66633;SDS011;53546;52.184;5.596;2022-11-20T15:43:18;10.05;;;6.47;;
66633;SDS011;53546;52.184;5.596;2022-11-20T15:45:44;11.32;;;7.07;;
66633;SDS011;53546;52.184;5.596;2022-11-20T15:48:16;10.52;;;6.32;;
66633;SDS011;53546;52.184;5.596;2022-11-20T15:50:49;7.87;;;6.07;;
66633;SDS011;53546;52.184;5.596;2022-11-20T15:53:17;10.25;;;6.47;;
66633;SDS011;53546;52.184;5.596;2022-11-20T15:55:43;7.78;;;6.13;;
66633;SDS011;53546;52.184;5.596;2022-11-20T15:58:08;12.68;;;6.45;;
66633;SDS011;53546;52.184;5.596;2022-11-20T16:00:34;8.43;;;6.15;;
66633;SDS011;53546;52.184;5.596;2022-11-20T16:02:59;8.68;;;6.47;;
66633;SDS011;53546;52.184;5.596;2022-11-20T16:05:27;9.88;;;6.10;;
66633;SDS011;53546;52.184;5.596;2022-11-20T16:07:53;6.85;;;5.70;;
66633;SDS011;53546;52.184;5.596;2022-11-20T16:10:18;11.57;;;6.30;;
66633;SDS011;53546;52.184;5.596;2022-11-20T16:12:44;10.20;;;6.68;;
66633;SDS011;53546;52.184;5.596;2022-11-20T16:15:28;9.80;;;6.13;;
66633;SDS011;53546;52.184;5.596;2022-11-20T16:18:13;11.85;;;6.28;;
66633;SDS011;53546;52.184;5.596;2022-11-20T16:20:42;8.10;;;5.95;;
66633;SDS011;53546;52.184;5.596;2022-11-20T16:23:08;12.50;;;6.65;;
66633;SDS011;53546;52.184;5.596;2022-11-20T16:25:34;9.35;;;6.47;;
66633;SDS011;53546;52.184;5.596;2022-11-20T16:27:59;11.45;;;6.40;;
66633;SDS011;53546;52.184;5.596;2022-11-20T16:30:25;10.18;;;6.72;;
66633;SDS011;53546;52.184;5.596;2022-11-20T16:32:51;11.77;;;6.40;;
66633;SDS011;53546;52.184;5.596;2022-11-20T16:35:16;7.82;;;6.35;;
66633;SDS011;53546;52.184;5.596;2022-11-20T16:37:41;11.30;;;6.57;;
66633;SDS011;53546;52.184;5.596;2022-11-20T16:40:08;12.80;;;6.88;;
66633;SDS011;53546;52.184;5.596;2022-11-20T16:42:35;9.15;;;6.53;;
66633;SDS011;53546;52.184;5.596;2022-11-20T16:45:01;15.10;;;6.82;;
66633;SDS011;53546;52.184;5.596;2022-11-20T16:47:27;9.02;;;6.78;;